Time;durP1;ratioP1;P1;durP2;ratioP2;P2;SDS_P1;SDS_P2;PMS_P1;PMS_P2;Temp;Humidity;BMP_temperature;BMP_pressure;BME280_temperature;BME280_humidity;BME280_pressure;Samples;Min_cycle;Max_cycle;Signal;HPM_P1;HPM_P2
2021/08/05 00:00:03;;;;;;;;;21.00;21.00;;;;;35.86;21.90;100664.59;144257;586;131020;-68
2021/08/05 00:02:37;;;;;;;;;23.50;21.50;;;;;35.77;22.11;100653.00;144226;564;132905;-67
2021/08/05 00:12:33;;;;;;;;;27.75;27.00;;;;;35.86;22.14;100657.22;144255;578;132010;-70
2021/08/05 00:15:08;;;;;;;;;29.50;27.50;;;;;35.84;22.29;100664.81;144222;569;132010;-70
2021/08/05 00:17:42;;;;;;;;;26.75;25.50;;;;;35.78;22.35;100656.59;144255;613;131021;-69
2021/08/05 00:20:16;;;;;;;;;25.75;24.25;;;;;35.55;22.55;100655.13;144230;566;131904;-69
2021/08/05 00:22:50;;;;;;;;;30.25;27.50;;;;;35.46;22.70;100649.03;144258;572;132008;-68
2021/08/05 00:25:24;;;;;;;;;30.00;28.00;;;;;35.42;22.77;100650.50;144231;579;131905;-71
2021/08/05 00:27:58;;;;;;;;;31.75;28.25;;;;;35.42;22.79;100647.78;144260;592;131020;-71
2021/08/05 00:30:32;;;;;;;;;34.50;31.50;;;;;35.30;22.48;100652.12;144222;596;132010;-71
2021/08/05 00:33:06;;;;;;;;;33.25;29.50;;;;;35.22;22.16;100644.97;144253;608;131021;-72
2021/08/05 00:35:40;;;;;;;;;26.00;26.00;;;;;35.22;22.06;100645.81;144225;681;132904;-70
2021/08/05 00:38:14;;;;;;;;;31.00;28.50;;;;;35.31;21.91;100641.00;144258;587;132006;-69
2021/08/05 00:40:50;;;;;;;;;33.00;29.25;;;;;35.32;21.97;100633.69;144224;659;132010;-70
2021/08/05 00:43:27;;;;;;;;;36.50;30.75;;;;;35.36;22.07;100641.28;144260;569;131020;-68
2021/08/05 00:46:03;;;;;;;;;31.25;29.75;;;;;35.40;22.44;100639.81;144227;573;132905;-72
2021/08/05 00:48:37;;;;;;;;;33.25;29.25;;;;;35.42;22.48;100639.59;144252;601;132012;-71
2021/08/05 00:51:11;;;;;;;;;33.75;30.00;;;;;35.44;22.76;100632.00;144233;666;131904;-70
2021/08/05 00:53:44;;;;;;;;;27.75;27.00;;;;;35.42;22.49;100634.13;144255;571;132010;-68
2021/08/05 00:56:19;;;;;;;;;38.25;30.00;;;;;35.44;22.43;100629.28;144228;665;132021;-68
2021/08/05 00:58:53;;;;;;;;;32.50;29.75;;;;;35.39;21.65;100632.66;144244;668;132008;-68
2021/08/05 01:01:32;;;;;;;;;32.75;30.25;;;;;35.32;21.37;100634.53;144226;578;132018;-68
2021/08/05 01:04:08;;;;;;;;;34.75;30.50;;;;;35.30;21.13;100633.03;144250;581;131031;-68
2021/08/05 01:07:19;;;;;;;;;29.00;28.00;;;;;35.16;22.14;100619.38;144230;660;132904;-68
2021/08/05 01:10:29;;;;;;;;;39.00;32.00;;;;;35.33;20.95;100611.66;144256;603;131021;-69
2021/08/05 01:13:39;;;;;;;;;36.00;31.00;;;;;35.23;21.23;100608.47;144227;564;132010;-71
2021/08/05 01:16:26;;;;;;;;;30.50;28.75;;;;;35.23;21.17;100631.13;144254;601;131021;-70
2021/08/05 01:19:15;;;;;;;;;34.25;31.00;;;;;35.21;21.30;100618.75;144222;567;132012;-70
2021/08/05 01:22:04;;;;;;;;;37.00;31.75;;;;;35.22;21.46;100626.72;144248;600;132010;-67
2021/08/05 01:24:41;;;;;;;;;37.25;32.50;;;;;35.36;21.47;100626.75;144225;594;132025;-71
2021/08/05 01:27:16;;;;;;;;;34.00;29.75;;;;;35.46;21.38;100619.00;144238;612;132012;-70
2021/08/05 01:29:50;;;;;;;;;34.25;31.50;;;;;35.49;20.91;100621.31;144229;578;131904;-68
2021/08/05 01:32:26;;;;;;;;;32.00;28.75;;;;;35.46;20.91;100619.00;144249;591;132008;-70
2021/08/05 01:35:01;;;;;;;;;33.00;29.75;;;;;35.44;21.04;100618.38;144224;592;132904;-68
2021/08/05 01:37:36;;;;;;;;;37.00;29.50;;;;;35.39;21.02;100612.69;144256;603;131020;-67
2021/08/05 01:40:12;;;;;;;;;29.25;27.75;;;;;35.43;21.65;100613.94;144215;564;132905;-68
2021/08/05 01:42:47;;;;;;;;;36.00;31.00;;;;;35.44;21.65;100615.63;144260;609;131020;-68
2021/08/05 01:45:22;;;;;;;;;32.75;28.50;;;;;35.33;22.06;100606.19;144227;594;132905;-68
2021/08/05 01:47:56;;;;;;;;;34.25;30.50;;;;;35.41;21.45;100605.16;144260;571;131023;-67
2021/08/05 01:50:30;;;;;;;;;26.25;25.25;;;;;35.22;21.52;100602.16;144227;631;131904;-67
2021/08/05 01:53:04;;;;;;;;;27.25;24.25;;;;;35.21;21.20;100602.38;144241;584;132008;-69
2021/08/05 01:55:53;;;;;;;;;34.00;30.00;;;;;35.16;21.82;100603.00;144230;614;132010;-67
2021/08/05 01:58:27;;;;;;;;;31.50;28.75;;;;;35.04;21.63;100599.22;144256;611;131020;-68
2021/08/05 02:01:01;;;;;;;;;34.50;30.75;;;;;34.98;21.22;100600.03;144219;709;132029;-67
2021/08/05 02:03:35;;;;;;;;;33.25;28.00;;;;;34.89;21.83;100593.94;144259;574;131008;-68
2021/08/05 02:06:24;;;;;;;;;31.00;28.25;;;;;34.88;21.83;100594.97;144214;604;132012;-70
2021/08/05 02:09:11;;;;;;;;;36.00;30.75;;;;;34.90;21.77;100592.91;144255;570;131021;-71
2021/08/05 02:11:50;;;;;;;;;34.75;28.50;;;;;34.98;21.25;100597.31;144225;578;132010;-73
2021/08/05 02:14:26;;;;;;;;;31.75;28.75;;;;;34.95;21.59;100592.28;144260;579;131020;-73
2021/08/05 02:17:04;;;;;;;;;32.50;30.00;;;;;34.91;22.67;100594.56;144223;582;131905;-74
2021/08/05 02:19:38;;;;;;;;;32.00;29.00;;;;;35.19;22.22;100590.84;144241;578;132012;-78
2021/08/05 02:22:13;;;;;;;;;31.00;28.25;;;;;35.18;21.63;100595.44;144227;588;132905;-69
2021/08/05 02:24:48;;;;;;;;;28.00;26.50;;;;;35.05;21.62;100595.44;144252;594;131043;-70
2021/08/05 02:27:23;;;;;;;;;33.25;27.75;;;;;35.00;21.97;100598.78;144219;563;132904;-69
2021/08/05 02:29:59;;;;;;;;;33.50;30.00;;;;;34.92;21.96;100588.91;144248;602;132008;-68
2021/08/05 02:32:33;;;;;;;;;31.50;29.75;;;;;35.03;21.97;100597.53;144217;617;132010;-67
2021/08/05 02:35:10;;;;;;;;;29.75;28.00;;;;;35.08;21.58;100597.75;144248;567;132012;-70
2021/08/05 02:37:45;;;;;;;;;32.25;28.50;;;;;34.94;21.79;100596.03;144226;718;132010;-71
2021/08/05 02:40:20;;;;;;;;;25.25;23.75;;;;;34.83;21.59;100603.78;144246;620;132008;-70
2021/08/05 02:42:54;;;;;;;;;28.75;23.00;;;;;34.80;21.89;100598.69;144224;571;131912;-69
2021/08/05 02:45:28;;;;;;;;;23.25;23.00;;;;;34.81;22.12;100592.25;144242;603;131036;-69
2021/08/05 02:48:03;;;;;;;;;29.75;28.00;;;;;34.78;22.14;100599.97;144227;563;131016;-69
2021/08/05 02:50:39;;;;;;;;;29.25;27.75;;;;;34.72;22.17;100597.03;144251;633;131020;-70
2021/08/05 02:53:14;;;;;;;;;29.50;27.25;;;;;34.79;22.25;100599.78;144219;641;132010;-69
2021/08/05 02:55:48;;;;;;;;;30.25;27.75;;;;;34.88;22.13;100604.00;144250;569;133020;-71
2021/08/05 02:58:23;;;;;;;;;29.00;27.00;;;;;34.78;22.20;100603.53;144221;577;132905;-69
2021/08/05 03:00:56;;;;;;;;;27.75;27.00;;;;;34.72;22.28;100612.50;144248;650;132006;-71
2021/08/05 03:03:31;;;;;;;;;31.25;28.00;;;;;34.64;22.50;100607.25;144221;581;132904;-69
2021/08/05 03:06:07;;;;;;;;;33.00;29.75;;;;;34.63;22.46;100602.87;144250;596;132008;-70
2021/08/05 03:08:48;;;;;;;;;27.75;26.25;;;;;34.54;22.32;100594.00;144216;573;132020;-69
2021/08/05 03:11:22;;;;;;;;;31.50;24.50;;;;;34.53;22.37;100601.34;144237;632;132010;-70
2021/08/05 03:13:56;;;;;;;;;25.25;24.25;;;;;34.41;22.46;100605.72;144214;590;132012;-70
2021/08/05 03:16:30;;;;;;;;;28.00;27.00;;;;;34.52;22.62;100610.56;144254;601;132010;-70
2021/08/05 03:19:04;;;;;;;;;31.75;28.50;;;;;34.54;22.64;100613.94;144228;586;131904;-70
2021/08/05 03:21:38;;;;;;;;;36.50;28.50;;;;;34.67;23.33;100609.59;144252;564;132008;-71
2021/08/05 03:24:12;;;;;;;;;25.75;25.75;;;;;34.70;22.94;100620.91;144225;564;132019;-70
2021/08/05 03:26:45;;;;;;;;;35.00;29.50;;;;;34.74;23.05;100627.63;144247;617;132012;-70
2021/08/05 03:29:19;;;;;;;;;29.75;27.50;;;;;34.66;22.70;100635.16;144223;570;132018;-71
2021/08/05 03:31:53;;;;;;;;;27.25;23.50;;;;;34.56;23.10;100641.81;144261;635;131021;-69
2021/08/05 03:34:27;;;;;;;;;25.75;24.50;;;;;34.48;23.06;100636.53;144219;569;132018;-69
2021/08/05 03:37:01;;;;;;;;;34.50;28.25;;;;;34.52;23.13;100640.56;144250;660;132008;-70
2021/08/05 03:39:36;;;;;;;;;25.75;24.75;;;;;34.50;23.10;100642.66;144229;706;132905;-71
2021/08/05 03:42:10;;;;;;;;;27.00;24.75;;;;;34.40;24.15;100642.16;144250;595;131022;-73
2021/08/05 03:44:44;;;;;;;;;24.50;23.50;;;;;34.37;24.49;100637.13;144217;655;132013;-71
2021/08/05 03:47:17;;;;;;;;;27.75;25.50;;;;;34.47;25.06;100642.22;144254;572;131021;-70
2021/08/05 03:49:51;;;;;;;;;23.25;22.25;;;;;34.53;25.57;100642.25;144225;577;132904;-69
2021/08/05 03:52:25;;;;;;;;;29.25;26.00;;;;;34.57;26.32;100638.06;144258;574;131021;-71
2021/08/05 03:54:59;;;;;;;;;27.00;25.00;;;;;34.70;26.40;100644.59;144225;641;132012;-70
2021/08/05 03:57:33;;;;;;;;;23.25;23.00;;;;;34.79;26.50;100639.81;144254;618;132008;-70
2021/08/05 04:00:07;;;;;;;;;26.50;24.25;;;;;34.63;26.15;100647.31;144223;564;132905;-71
2021/08/05 04:02:42;;;;;;;;;26.00;26.00;;;;;34.54;25.61;100643.06;144253;583;132008;-70
2021/08/05 04:05:16;;;;;;;;;28.25;27.75;;;;;34.39;25.68;100633.16;144220;589;132020;-70
2021/08/05 04:07:50;;;;;;;;;28.75;27.50;;;;;34.35;25.56;100637.34;144256;603;131022;-74
2021/08/05 04:10:25;;;;;;;;;30.00;27.25;;;;;34.45;25.55;100630.66;144218;665;132010;-71
2021/08/05 04:12:59;;;;;;;;;29.25;28.00;;;;;34.56;25.15;100624.66;144258;569;132008;-71
2021/08/05 04:15:33;;;;;;;;;24.50;21.75;;;;;34.53;24.89;100628.62;144217;570;132012;-68
2021/08/05 04:18:07;;;;;;;;;25.50;23.75;;;;;34.63;25.04;100627.41;144251;566;132012;-70
2021/08/05 04:20:41;;;;;;;;;27.25;26.75;;;;;34.67;24.70;100618.59;144219;596;132013;-71
2021/08/05 04:23:15;;;;;;;;;28.50;27.00;;;;;34.68;25.24;100612.09;144252;597;132008;-69
2021/08/05 04:25:49;;;;;;;;;31.25;28.50;;;;;34.70;25.00;100614.62;144217;671;132020;-70
2021/08/05 04:28:23;;;;;;;;;30.00;26.25;;;;;34.65;25.28;100620.69;144241;565;132009;-69
2021/08/05 04:30:57;;;;;;;;;30.00;27.50;;;;;34.73;25.77;100619.66;144225;585;131905;-69
2021/08/05 04:33:31;;;;;;;;;30.75;28.25;;;;;34.87;25.73;100620.56;144249;688;132008;-72
2021/08/05 04:36:05;;;;;;;;;35.50;28.50;;;;;34.94;25.83;100620.59;144230;564;131904;-71
2021/08/05 04:38:39;;;;;;;;;25.00;24.25;;;;;34.88;25.96;100617.63;144254;573;131021;-71
2021/08/05 04:41:13;;;;;;;;;33.00;28.50;;;;;34.80;25.85;100619.69;144225;668;132010;-73
2021/08/05 04:43:47;;;;;;;;;28.25;27.00;;;;;34.67;26.63;100625.94;144248;588;132008;-71
2021/08/05 04:46:21;;;;;;;;;31.50;28.00;;;;;34.67;26.25;100620.50;144227;603;131904;-70
2021/08/05 04:48:55;;;;;;;;;28.00;25.50;;;;;34.73;26.22;100630.56;144254;569;131020;-70
2021/08/05 04:51:31;;;;;;;;;30.50;26.25;;;;;34.76;26.05;100624.69;144219;579;132905;-71
2021/08/05 04:54:06;;;;;;;;;35.00;30.00;;;;;34.86;25.88;100633.37;144254;601;131020;-70
2021/08/05 04:56:40;;;;;;;;;36.00;29.50;;;;;34.88;26.09;100624.97;144225;569;131904;-71
2021/08/05 04:59:13;;;;;;;;;32.25;29.25;;;;;34.96;25.75;100629.41;144249;564;132012;-70
2021/08/05 05:01:47;;;;;;;;;33.25;27.25;;;;;35.00;25.62;100625.22;144230;571;132904;-71
2021/08/05 05:04:21;;;;;;;;;36.25;29.25;;;;;35.13;25.84;100627.97;144253;563;132006;-71
2021/08/05 05:06:55;;;;;;;;;32.25;29.00;;;;;35.23;25.69;100631.13;144228;620;132011;-70
2021/08/05 05:09:29;;;;;;;;;37.00;29.75;;;;;35.27;25.12;100636.16;144248;575;132008;-71
2021/08/05 05:12:03;;;;;;;;;34.50;30.00;;;;;35.35;25.04;100639.56;144236;601;131905;-70
2021/08/05 05:14:37;;;;;;;;;30.75;28.25;;;;;35.46;25.27;100637.25;144256;591;131040;-70
2021/08/05 05:17:11;;;;;;;;;30.75;27.00;;;;;35.62;24.99;100636.00;144226;569;132010;-71
2021/08/05 05:19:45;;;;;;;;;33.25;28.75;;;;;35.77;24.50;100642.09;144241;583;131020;-71
2021/08/05 05:22:19;;;;;;;;;37.00;32.00;;;;;35.79;24.64;100640.00;144225;592;132010;-71
2021/08/05 05:24:52;;;;;;;;;35.50;31.25;;;;;36.09;24.67;100639.56;144256;602;131020;-71
2021/08/05 05:27:26;;;;;;;;;31.50;28.50;;;;;36.28;24.52;100637.81;144226;586;131905;-71
2021/08/05 05:30:01;;;;;;;;;31.00;29.25;;;;;36.48;24.12;100643.22;144260;630;131020;-71
2021/08/05 05:32:35;;;;;;;;;34.75;29.50;;;;;36.72;23.47;100636.19;144224;580;132018;-72
2021/08/05 05:35:10;;;;;;;;;30.25;28.25;;;;;36.84;23.46;100643.72;144248;573;132012;-71
2021/08/05 05:37:44;;;;;;;;;32.75;29.25;;;;;37.01;22.17;100631.22;144221;681;132012;-72
2021/08/05 05:40:19;;;;;;;;;32.00;27.00;;;;;37.16;21.60;100646.50;144253;616;131050;-71
2021/08/05 05:42:53;;;;;;;;;31.50;27.75;;;;;37.31;21.39;100632.53;144215;700;132012;-71
2021/08/05 05:45:27;;;;;;;;;29.50;27.75;;;;;37.43;21.54;100633.50;144247;696;131023;-71
2021/08/05 05:48:02;;;;;;;;;34.25;31.00;;;;;37.58;21.71;100631.25;144225;602;132904;-72
2021/08/05 05:50:36;;;;;;;;;27.50;27.00;;;;;37.67;22.07;100628.22;144253;622;131021;-71
2021/08/05 05:53:10;;;;;;;;;25.75;25.25;;;;;37.84;21.97;100626.63;144231;651;132905;-72
2021/08/05 05:55:46;;;;;;;;;34.25;29.00;;;;;38.01;22.48;100626.03;144251;570;132008;-69
2021/08/05 05:58:21;;;;;;;;;25.50;25.00;;;;;38.03;22.29;100623.87;144228;612;131020;-69
2021/08/05 06:00:56;;;;;;;;;24.00;24.00;;;;;38.34;22.58;100619.34;144254;597;131020;-71
2021/08/05 06:03:30;;;;;;;;;32.75;26.75;;;;;38.45;22.04;100624.06;144226;598;132010;-69
2021/08/05 06:06:04;;;;;;;;;26.75;24.00;;;;;38.51;22.12;100622.28;144246;580;132012;-70
2021/08/05 06:08:38;;;;;;;;;26.50;21.25;;;;;38.41;21.68;100622.84;144219;584;132012;-69
2021/08/05 06:11:12;;;;;;;;;25.75;21.75;;;;;38.56;21.48;100620.56;144247;618;131022;-70
2021/08/05 06:13:48;;;;;;;;;25.50;25.25;;;;;38.68;21.44;100620.59;144226;613;131905;-72
2021/08/05 06:16:22;;;;;;;;;27.25;25.75;;;;;38.76;21.36;100620.28;144254;618;132006;-69
2021/08/05 06:18:56;;;;;;;;;27.25;26.25;;;;;38.70;21.82;100621.22;144218;629;132010;-71
2021/08/05 06:21:30;;;;;;;;;29.00;26.50;;;;;38.98;21.39;100613.47;144251;586;131021;-73
2021/08/05 06:24:04;;;;;;;;;24.25;22.00;;;;;37.87;22.69;100623.41;144228;611;132904;-75
2021/08/05 06:26:37;;;;;;;;;22.75;21.25;;;;;38.89;22.37;100616.53;144255;594;131020;-72
2021/08/05 06:29:12;;;;;;;;;26.00;23.25;;;;;39.28;21.58;100616.16;144227;564;132905;-71
2021/08/05 06:31:46;;;;;;;;;26.50;23.50;;;;;39.42;21.26;100614.03;144252;639;131020;-72
2021/08/05 06:34:20;;;;;;;;;23.50;22.00;;;;;39.39;21.51;100614.53;144224;611;132905;-72
2021/08/05 06:36:54;;;;;;;;;26.00;20.25;;;;;38.83;20.56;100613.87;144249;609;132008;-72
2021/08/05 06:39:28;;;;;;;;;22.25;22.00;;;;;39.46;21.08;100617.97;144225;726;131905;-72
2021/08/05 06:42:02;;;;;;;;;28.50;25.00;;;;;39.44;20.70;100609.16;144258;602;131021;-72
2021/08/05 06:44:36;;;;;;;;;28.00;26.50;;;;;39.66;20.86;100617.66;144228;571;131904;-70
2021/08/05 06:47:10;;;;;;;;;25.50;23.25;;;;;39.42;22.26;100609.41;144250;590;132012;-69
2021/08/05 06:49:44;;;;;;;;;33.50;28.75;;;;;39.60;22.30;100613.97;144221;611;132011;-69
2021/08/05 06:52:20;;;;;;;;;28.00;22.50;;;;;39.85;23.40;100614.78;144253;573;133010;-69
2021/08/05 06:54:54;;;;;;;;;26.25;24.75;;;;;39.58;23.72;100604.25;144232;712;131012;-72
2021/08/05 06:57:28;;;;;;;;;28.75;26.50;;;;;39.77;23.96;100608.59;144256;606;132017;-72
2021/08/05 07:00:02;;;;;;;;;25.50;23.75;;;;;39.83;24.06;100605.97;144229;577;131904;-72
2021/08/05 07:02:35;;;;;;;;;26.00;22.25;;;;;39.67;23.93;100597.38;144251;577;131020;-72
2021/08/05 07:05:11;;;;;;;;;23.00;20.75;;;;;39.16;23.93;100596.94;144231;632;131905;-72
2021/08/05 07:07:45;;;;;;;;;22.75;21.00;;;;;39.82;23.00;100594.16;144248;582;132012;-72
2021/08/05 07:10:19;;;;;;;;;24.00;24.00;;;;;40.01;22.95;100596.72;144226;669;131905;-72
2021/08/05 07:12:53;;;;;;;;;29.00;26.50;;;;;40.42;22.76;100598.44;144243;591;134008;-70
2021/08/05 07:15:27;;;;;;;;;25.00;24.75;;;;;40.43;22.73;100591.03;144223;580;131904;-71
2021/08/05 07:18:01;;;;;;;;;29.25;26.75;;;;;39.54;24.22;100597.56;144248;599;132008;-71
2021/08/05 07:20:35;;;;;;;;;27.00;26.75;;;;;39.26;25.31;100597.19;144226;570;131047;-71
2021/08/05 07:23:09;;;;;;;;;28.50;26.00;;;;;38.31;26.46;100609.69;144256;584;131029;-71
2021/08/05 07:25:42;;;;;;;;;31.00;27.00;;;;;39.33;24.39;100604.47;144225;570;131905;-69
2021/08/05 07:28:16;;;;;;;;;29.50;26.75;;;;;38.68;25.40;100600.56;144245;718;132008;-71
2021/08/05 07:30:52;;;;;;;;;24.00;22.00;;;;;38.28;25.09;100609.31;144222;578;131905;-70
2021/08/05 07:33:26;;;;;;;;;25.25;24.25;;;;;38.90;24.45;100598.16;144259;625;131021;-71
2021/08/05 07:36:00;;;;;;;;;27.00;24.75;;;;;39.04;24.61;100596.91;144225;607;132010;-70
2021/08/05 07:38:34;;;;;;;;;25.25;24.25;;;;;39.55;24.33;100596.50;144257;564;132006;-71
2021/08/05 07:41:08;;;;;;;;;23.75;23.00;;;;;38.88;26.73;100598.41;144229;631;131905;-72
2021/08/05 07:43:42;;;;;;;;;31.50;25.50;;;;;38.95;26.53;100591.97;144250;617;132008;-71
2021/08/05 07:46:16;;;;;;;;;25.50;23.25;;;;;39.71;26.54;100595.81;144219;565;132905;-68
2021/08/05 07:48:50;;;;;;;;;24.50;20.50;;;;;38.92;29.20;100596.03;144257;593;131012;-70
2021/08/05 07:51:24;;;;;;;;;23.50;22.25;;;;;38.97;29.29;100587.91;144228;576;131904;-70
2021/08/05 07:53:58;;;;;;;;;24.50;24.50;;;;;39.30;28.11;100583.00;144235;646;132006;-71
2021/08/05 07:56:32;;;;;;;;;30.25;24.50;;;;;38.66;29.86;100578.84;144222;574;132011;-71
2021/08/05 07:59:06;;;;;;;;;26.75;25.00;;;;;39.68;27.97;100574.31;144248;565;131022;-72
2021/08/05 08:01:40;;;;;;;;;23.75;21.25;;;;;40.03;28.45;100583.59;144222;570;132013;-69
2021/08/05 08:04:14;;;;;;;;;26.75;24.00;;;;;40.01;28.16;100574.75;144255;569;132006;-70
2021/08/05 08:06:48;;;;;;;;;27.75;21.75;;;;;40.69;26.72;100569.53;144226;577;132904;-71
2021/08/05 08:09:21;;;;;;;;;25.50;22.00;;;;;40.20;26.79;100568.03;144256;590;132008;-70
2021/08/05 08:11:55;;;;;;;;;26.00;21.75;;;;;40.58;26.24;100568.50;144231;563;131905;-72
2021/08/05 08:14:32;;;;;;;;;20.25;20.25;;;;;40.53;25.19;100558.25;144257;578;131020;-72
2021/08/05 08:17:06;;;;;;;;;24.25;21.50;;;;;40.08;26.39;100564.47;144213;633;132905;-72
2021/08/05 08:19:40;;;;;;;;;21.00;19.25;;;;;40.16;25.62;100564.09;144245;623;132008;-71
2021/08/05 08:22:14;;;;;;;;;18.75;16.00;;;;;40.15;25.71;100558.84;144225;631;132018;-72
2021/08/05 08:24:48;;;;;;;;;25.00;24.50;;;;;39.77;25.01;100561.88;144254;584;132006;-72
2021/08/05 08:27:23;;;;;;;;;22.50;21.25;;;;;39.77;25.15;100559.13;144221;653;132010;-72
2021/08/05 08:29:57;;;;;;;;;26.25;22.25;;;;;40.09;24.05;100553.25;144249;625;132008;-72
2021/08/05 08:32:30;;;;;;;;;21.00;21.00;;;;;39.96;24.57;100556.25;144224;696;132905;-71
2021/08/05 08:35:04;;;;;;;;;25.00;24.25;;;;;40.52;24.15;100561.22;144249;696;132008;-73
2021/08/05 08:37:38;;;;;;;;;21.75;20.25;;;;;39.90;24.91;100562.69;144222;626;132010;-72
2021/08/05 08:40:13;;;;;;;;;25.75;22.50;;;;;40.86;23.77;100559.41;144255;590;131021;-72
2021/08/05 08:42:48;;;;;;;;;20.50;18.75;;;;;41.01;24.03;100563.50;144223;648;132012;-73
2021/08/05 08:45:22;;;;;;;;;19.00;19.00;;;;;41.03;24.58;100558.59;144244;578;132010;-71
2021/08/05 08:47:58;;;;;;;;;21.50;19.00;;;;;41.27;23.44;100557.34;144222;626;131852;-73
2021/08/05 08:50:35;;;;;;;;;20.50;19.75;;;;;41.42;23.55;100561.44;144254;635;131020;-72
2021/08/05 08:53:11;;;;;;;;;19.00;19.00;;;;;41.59;23.28;100562.25;144225;585;131020;-73
2021/08/05 08:55:48;;;;;;;;;20.25;20.25;;;;;41.58;22.76;100555.09;144251;583;132008;-72
2021/08/05 08:58:23;;;;;;;;;26.25;24.75;;;;;41.38;22.49;100554.75;144217;694;132012;-73
2021/08/05 09:00:57;;;;;;;;;20.00;19.50;;;;;41.54;22.83;100559.41;144253;570;131020;-73
2021/08/05 09:03:31;;;;;;;;;22.25;21.00;;;;;41.37;22.29;100555.87;144241;571;131905;-73
2021/08/05 09:06:05;;;;;;;;;18.75;18.50;;;;;41.08;22.03;100556.78;144268;624;131010;-72
2021/08/05 09:08:43;;;;;;;;;21.00;21.00;;;;;41.38;20.65;100552.00;144242;567;130030;-72
2021/08/05 09:11:17;;;;;;;;;20.50;20.25;;;;;41.63;20.46;100540.53;144265;567;130021;-72
2021/08/05 09:13:50;;;;;;;;;19.00;19.00;;;;;41.71;20.79;100553.06;144239;606;131010;-72
2021/08/05 09:16:28;;;;;;;;;24.00;20.50;;;;;41.72;21.14;100544.53;144269;627;131008;-72
2021/08/05 09:19:20;;;;;;;;;23.25;21.25;;;;;41.83;21.79;100550.19;144236;566;131904;-72
2021/08/05 09:22:01;;;;;;;;;27.00;24.50;;;;;41.56;21.89;100537.16;144271;651;130026;-72
2021/08/05 09:24:35;;;;;;;;;20.50;20.50;;;;;41.94;19.62;100530.78;144244;646;130998;-72
2021/08/05 09:27:09;;;;;;;;;21.00;20.50;;;;;42.08;19.55;100522.13;144272;579;130029;-72
2021/08/05 09:29:48;;;;;;;;;22.25;18.00;;;;;42.06;20.22;100516.03;144244;575;131010;-72
2021/08/05 09:32:31;;;;;;;;;21.50;20.25;;;;;41.83;20.40;100525.37;144267;596;131011;-71
2021/08/05 09:35:12;;;;;;;;;24.75;23.00;;;;;41.98;20.62;100520.09;144233;599;132904;-71
2021/08/05 09:37:46;;;;;;;;;20.00;19.75;;;;;41.97;20.11;100515.66;144260;583;131006;-72
2021/08/05 09:40:22;;;;;;;;;26.25;23.50;;;;;42.17;19.93;100505.94;144245;616;130017;-72
2021/08/05 09:42:59;;;;;;;;;26.75;24.00;;;;;42.18;20.05;100502.91;144273;578;130020;-73
2021/08/05 09:45:38;;;;;;;;;21.00;19.50;;;;;42.29;19.26;100498.37;144243;612;131011;-72
2021/08/05 09:48:12;;;;;;;;;23.75;20.00;;;;;42.36;18.63;100492.66;144275;688;130021;-73
2021/08/05 09:50:46;;;;;;;;;28.50;24.25;;;;;42.70;18.51;100489.69;144238;583;131012;-72
2021/08/05 09:53:20;;;;;;;;;25.50;24.25;;;;;42.62;18.25;100483.53;144266;569;131013;-72
2021/08/05 09:55:54;;;;;;;;;23.00;21.00;;;;;42.60;17.51;100482.13;144245;597;131010;-72
2021/08/05 09:58:30;;;;;;;;;18.25;18.25;;;;;42.72;17.32;100476.44;144268;628;131008;-72
2021/08/05 10:01:10;;;;;;;;;25.25;20.75;;;;;43.05;16.26;100474.50;144240;631;131016;-72
2021/08/05 10:03:44;;;;;;;;;22.25;20.75;;;;;42.74;17.34;100472.34;144241;590;132008;-72
2021/08/05 10:06:18;;;;;;;;;25.50;22.75;;;;;42.44;16.90;100470.94;144217;624;132018;-72
2021/08/05 10:08:52;;;;;;;;;21.75;20.00;;;;;42.81;16.68;100465.78;144253;622;132006;-83
2021/08/05 10:11:43;;;;;;;;;18.50;16.00;;;;;42.60;16.33;100466.41;144224;582;132010;-75
2021/08/05 10:14:27;;;;;;;;;17.75;17.50;;;;;42.73;16.76;100459.66;144249;581;132008;-72
2021/08/05 10:17:01;;;;;;;;;19.75;19.25;;;;;43.20;16.08;100452.53;144225;642;132011;-71
2021/08/05 10:19:40;;;;;;;;;18.75;18.25;;;;;43.02;15.57;100452.94;144255;595;132008;-72
2021/08/05 10:22:17;;;;;;;;;26.00;22.50;;;;;43.20;16.14;100444.25;144226;636;132010;-71
2021/08/05 10:24:54;;;;;;;;;21.75;18.00;;;;;42.73;15.84;100447.75;144254;593;132008;-69
2021/08/05 10:27:29;;;;;;;;;23.00;18.75;;;;;42.47;16.01;100436.50;144221;589;132904;-70
2021/08/05 10:30:04;;;;;;;;;17.75;17.00;;;;;42.58;15.50;100435.50;144238;748;132008;-70
2021/08/05 10:32:38;;;;;;;;;22.25;21.50;;;;;42.78;15.43;100426.56;144208;606;133016;-70
2021/08/05 10:35:13;;;;;;;;;19.50;18.50;;;;;42.68;15.68;100411.84;144249;576;131022;-70
2021/08/05 10:37:48;;;;;;;;;21.50;20.25;;;;;42.78;15.00;100417.47;144216;589;132918;-70
2021/08/05 10:40:23;;;;;;;;;21.00;18.00;;;;;42.95;14.69;100417.28;144251;576;132008;-71
2021/08/05 10:42:57;;;;;;;;;19.75;18.75;;;;;42.42;14.84;100417.97;144220;593;132010;-69
2021/08/05 10:45:32;;;;;;;;;22.75;20.50;;;;;42.18;14.39;100414.69;144252;631;132006;-70
2021/08/05 10:48:06;;;;;;;;;24.25;19.00;;;;;42.81;14.18;100405.06;144220;588;132012;-70
2021/08/05 10:50:46;;;;;;;;;26.00;23.25;;;;;42.78;14.34;100400.91;144248;587;132008;-70
2021/08/05 10:53:58;;;;;;;;;22.75;20.25;;;;;42.87;14.46;100387.41;144220;582;132011;-70
2021/08/05 10:56:33;;;;;;;;;21.25;20.00;;;;;42.43;14.46;100393.97;144249;635;131020;-71
2021/08/05 10:59:17;;;;;;;;;19.75;17.50;;;;;42.68;13.67;100384.25;144215;605;132023;-69
2021/08/05 11:02:01;;;;;;;;;21.00;19.75;;;;;42.40;13.97;100373.28;144248;598;132006;-73
2021/08/05 11:04:52;;;;;;;;;19.25;16.50;;;;;43.08;14.00;100372.66;144212;600;132904;-76
2021/08/05 11:07:28;;;;;;;;;23.00;17.75;;;;;42.98;13.74;100371.75;144252;597;132012;-73
2021/08/05 11:10:26;;;;;;;;;17.75;17.00;;;;;43.06;13.35;100351.94;144225;622;132010;-72
2021/08/05 11:13:21;;;;;;;;;18.50;16.75;;;;;42.88;13.51;100348.53;144252;627;131020;-71
2021/08/05 11:15:55;;;;;;;;;14.00;14.00;;;;;43.17;12.89;100339.88;144219;574;132905;-70
2021/08/05 11:18:29;;;;;;;;;20.00;18.75;;;;;43.09;12.48;100340.38;144249;582;132012;-71
2021/08/05 11:21:30;;;;;;;;;17.25;15.00;;;;;43.57;11.93;100338.34;144216;580;132012;-72
2021/08/05 11:24:10;;;;;;;;;19.00;18.25;;;;;43.26;12.13;100335.47;144244;586;132008;-71
2021/08/05 11:27:16;;;;;;;;;16.50;15.25;;;;;42.96;11.87;100314.06;144220;673;132010;-71
2021/08/05 11:29:51;;;;;;;;;16.25;14.25;;;;;42.55;11.98;100324.84;144256;624;132008;-72
2021/08/05 11:32:45;;;;;;;;;19.00;17.75;;;;;42.36;12.75;100318.91;144221;672;132010;-70
2021/08/05 11:35:23;;;;;;;;;17.50;13.75;;;;;42.06;12.24;100323.06;144258;606;132008;-71
2021/08/05 11:38:18;;;;;;;;;15.25;15.25;;;;;41.16;13.93;100320.69;144219;628;132012;-71
2021/08/05 11:40:51;;;;;;;;;17.25;15.75;;;;;40.86;16.65;100321.91;144248;583;132008;-70
2021/08/05 11:43:26;;;;;;;;;16.75;14.75;;;;;42.67;13.11;100313.66;144228;597;132010;-71
2021/08/05 11:46:24;;;;;;;;;21.00;18.00;;;;;41.23;13.26;100311.16;144250;575;132006;-72
2021/08/05 11:48:58;;;;;;;;;19.25;14.25;;;;;42.53;11.88;100299.44;144225;595;132906;-71